createdAt,value
2018-12-09T00:00:31.559Z,19.72
2018-12-09T00:01:31.352Z,19.73
2018-12-09T00:02:31.825Z,19.71
2018-12-09T00:03:31.579Z,19.73
2018-12-09T00:04:31.426Z,19.72
2018-12-09T00:05:31.614Z,19.72
2018-12-09T00:06:31.752Z,19.72
2018-12-09T00:07:31.497Z,19.71
2018-12-09T00:08:31.454Z,19.71
2018-12-09T00:09:31.840Z,19.7
2018-12-09T00:10:31.621Z,19.71
2018-12-09T00:11:31.467Z,19.7
2018-12-09T00:12:31.628Z,19.7
2018-12-09T00:13:31.504Z,19.69
2018-12-09T00:14:31.535Z,19.69
2018-12-09T00:15:31.389Z,19.69
2018-12-09T00:16:31.796Z,19.68
2018-12-09T00:17:31.734Z,19.68
2018-12-09T00:18:31.748Z,19.68
2018-12-09T00:19:31.935Z,19.67
2018-12-09T00:20:31.884Z,19.67
2018-12-09T00:21:31.597Z,19.66
2018-12-09T00:22:31.427Z,19.66
2018-12-09T00:23:31.457Z,19.65
2018-12-09T00:24:31.528Z,19.65
2018-12-09T00:25:31.701Z,19.66
2018-12-09T00:26:31.318Z,19.64
2018-12-09T00:27:31.500Z,19.65
2018-12-09T00:28:31.803Z,19.65
2018-12-09T00:29:31.620Z,19.65
2018-12-09T00:30:31.413Z,19.65
2018-12-09T00:31:31.976Z,19.64
2018-12-09T00:32:31.831Z,19.63
2018-12-09T00:33:31.645Z,19.65
2018-12-09T00:34:31.480Z,19.64
2018-12-09T00:35:31.655Z,19.62
2018-12-09T00:36:31.936Z,19.63
2018-12-09T00:37:31.973Z,19.62
2018-12-09T00:38:31.654Z,19.62
2018-12-09T00:39:31.678Z,19.62
2018-12-09T00:40:31.790Z,19.62
2018-12-09T00:41:31.588Z,19.6
2018-12-09T00:42:31.497Z,19.61
2018-12-09T00:43:31.899Z,19.61
2018-12-09T00:44:31.706Z,19.6
2018-12-09T00:45:31.912Z,19.61
2018-12-09T00:46:32.033Z,19.6
2018-12-09T00:47:31.659Z,19.6
2018-12-09T00:48:31.334Z,19.59
2018-12-09T00:49:31.548Z,19.59
2018-12-09T00:50:31.466Z,19.58
2018-12-09T00:51:31.544Z,19.59
2018-12-09T00:52:31.476Z,19.57
2018-12-09T00:53:31.259Z,19.58
2018-12-09T00:54:31.752Z,19.56
2018-12-09T00:55:31.413Z,19.57
2018-12-09T00:56:31.604Z,19.57
2018-12-09T00:57:31.561Z,19.57
2018-12-09T00:58:31.648Z,19.57
2018-12-09T00:59:31.729Z,19.56
2018-12-09T01:00:31.611Z,19.55
2018-12-09T01:01:32.187Z,19.56
2018-12-09T01:02:31.504Z,19.56
2018-12-09T01:03:31.615Z,19.56
2018-12-09T01:04:31.658Z,19.55
2018-12-09T01:05:31.562Z,19.55
2018-12-09T01:06:31.809Z,19.55
2018-12-09T01:07:31.986Z,19.55
2018-12-09T01:08:32.302Z,19.54
2018-12-09T01:09:31.406Z,19.54
2018-12-09T01:10:31.890Z,19.53
2018-12-09T01:11:31.551Z,19.53
2018-12-09T01:12:31.875Z,19.53
2018-12-09T01:13:31.550Z,19.53
2018-12-09T01:14:31.539Z,19.53
2018-12-09T01:15:31.815Z,19.53
2018-12-09T01:16:31.283Z,19.52
2018-12-09T01:17:31.764Z,19.52
2018-12-09T01:18:31.915Z,19.52
2018-12-09T01:19:31.951Z,19.51
2018-12-09T01:20:31.477Z,19.51
2018-12-09T01:21:31.769Z,19.51
2018-12-09T01:22:31.725Z,19.5
2018-12-09T01:23:31.812Z,19.51
2018-12-09T01:24:31.311Z,19.5
2018-12-09T01:25:31.696Z,19.5
2018-12-09T01:26:31.629Z,19.5
2018-12-09T01:27:31.759Z,19.49
2018-12-09T01:28:31.534Z,19.5
2018-12-09T01:29:31.559Z,19.49
2018-12-09T01:30:31.578Z,19.48
2018-12-09T01:31:31.643Z,19.49
2018-12-09T01:32:31.861Z,19.48
2018-12-09T01:33:31.547Z,19.48
2018-12-09T01:34:31.329Z,19.48
2018-12-09T01:35:31.607Z,19.47
2018-12-09T01:36:31.917Z,19.47
2018-12-09T01:37:31.445Z,19.46
2018-12-09T01:38:31.308Z,19.46
2018-12-09T01:39:31.799Z,19.46
2018-12-09T01:40:31.810Z,19.46
2018-12-09T01:41:31.370Z,19.46
2018-12-09T01:42:31.698Z,19.46
2018-12-09T01:43:32.203Z,19.46
2018-12-09T01:44:31.487Z,19.45
2018-12-09T01:45:31.263Z,19.45
2018-12-09T01:46:31.750Z,19.44
2018-12-09T01:47:31.541Z,19.44
2018-12-09T01:48:31.389Z,19.44
2018-12-09T01:49:31.956Z,19.44
2018-12-09T01:50:31.403Z,19.44
2018-12-09T01:51:31.563Z,19.42
2018-12-09T01:52:31.345Z,19.42
2018-12-09T01:53:31.699Z,19.43
2018-12-09T01:54:31.528Z,19.42
2018-12-09T01:55:31.809Z,19.42
2018-12-09T01:56:31.829Z,19.43
2018-12-09T01:57:31.795Z,19.42
2018-12-09T01:58:31.967Z,19.41
2018-12-09T01:59:31.663Z,19.41
2018-12-09T02:00:31.414Z,19.4
2018-12-09T02:01:31.312Z,19.4
2018-12-09T02:02:31.362Z,19.41
2018-12-09T02:03:31.505Z,19.39
2018-12-09T02:04:31.699Z,19.4
2018-12-09T02:05:31.887Z,19.39
2018-12-09T02:06:31.760Z,19.39
2018-12-09T02:07:31.795Z,19.39
2018-12-09T02:08:31.815Z,19.4
2018-12-09T02:09:31.627Z,19.39
2018-12-09T02:10:32.247Z,19.39
2018-12-09T02:11:31.306Z,19.39
2018-12-09T02:12:31.727Z,19.39
2018-12-09T02:13:31.558Z,19.38
2018-12-09T02:14:31.433Z,19.38
2018-12-09T02:15:31.539Z,19.38
2018-12-09T02:16:31.221Z,19.37
2018-12-09T02:17:31.672Z,19.37
2018-12-09T02:18:31.430Z,19.37
2018-12-09T02:19:31.883Z,19.37
2018-12-09T02:20:31.720Z,19.36
2018-12-09T02:21:31.436Z,19.36
2018-12-09T02:22:31.444Z,19.35
2018-12-09T02:23:32.214Z,19.35
2018-12-09T02:24:31.482Z,19.36
2018-12-09T02:25:31.607Z,19.35
2018-12-09T02:26:31.342Z,19.34
2018-12-09T02:27:31.709Z,19.34
2018-12-09T02:28:31.764Z,19.35
2018-12-09T02:29:31.858Z,19.34
2018-12-09T02:30:31.654Z,19.33
2018-12-09T02:31:31.460Z,19.33
2018-12-09T02:32:31.513Z,19.34
2018-12-09T02:33:31.359Z,19.33
2018-12-09T02:34:31.688Z,19.33
2018-12-09T02:35:31.377Z,19.33
2018-12-09T02:36:31.710Z,19.32
2018-12-09T02:37:31.415Z,19.32
2018-12-09T02:38:31.635Z,19.32
2018-12-09T02:39:31.683Z,19.31
2018-12-09T02:40:31.341Z,19.31
2018-12-09T02:41:31.737Z,19.32
2018-12-09T02:42:31.354Z,19.32
2018-12-09T02:43:31.692Z,19.31
2018-12-09T02:44:31.268Z,19.3
2018-12-09T02:45:31.470Z,19.3
2018-12-09T02:46:31.390Z,19.3
2018-12-09T02:47:31.491Z,19.3
2018-12-09T02:48:31.518Z,19.29
2018-12-09T02:49:31.370Z,19.29
2018-12-09T02:50:31.901Z,19.29
2018-12-09T02:51:31.579Z,19.29
2018-12-09T02:52:32.015Z,19.3
2018-12-09T02:53:31.834Z,19.29
2018-12-09T02:54:31.775Z,19.28
2018-12-09T02:55:31.225Z,19.28
2018-12-09T02:56:31.736Z,19.29
2018-12-09T02:57:31.818Z,19.28
2018-12-09T02:58:32.158Z,19.28
2018-12-09T02:59:31.874Z,19.27
2018-12-09T03:00:31.939Z,19.28
2018-12-09T03:01:31.970Z,19.27
2018-12-09T03:02:31.602Z,19.27
2018-12-09T03:03:31.444Z,19.27
2018-12-09T03:04:31.268Z,19.27
2018-12-09T03:05:31.460Z,19.26
2018-12-09T03:06:31.880Z,19.26
2018-12-09T03:07:31.414Z,19.25
2018-12-09T03:08:31.366Z,19.26
2018-12-09T03:09:31.797Z,19.25
2018-12-09T03:10:31.632Z,19.25
2018-12-09T03:11:31.427Z,19.25
2018-12-09T03:12:31.303Z,19.24
2018-12-09T03:13:31.583Z,19.25
2018-12-09T03:14:32.068Z,19.24
2018-12-09T03:15:31.323Z,19.23
2018-12-09T03:16:31.871Z,19.24
2018-12-09T03:17:31.696Z,19.24
2018-12-09T03:18:31.696Z,19.23
2018-12-09T03:19:31.700Z,19.23
2018-12-09T03:20:31.321Z,19.23
2018-12-09T03:21:31.748Z,19.23
2018-12-09T03:22:31.622Z,19.23
2018-12-09T03:23:31.900Z,19.23
2018-12-09T03:24:31.278Z,19.23
2018-12-09T03:25:31.469Z,19.22
2018-12-09T03:26:31.663Z,19.22
2018-12-09T03:27:31.666Z,19.22
2018-12-09T03:28:31.757Z,19.21
2018-12-09T03:29:31.299Z,19.22
2018-12-09T03:30:31.846Z,19.22
2018-12-09T03:31:31.416Z,19.21
2018-12-09T03:32:31.424Z,19.2
2018-12-09T03:33:31.902Z,19.22
2018-12-09T03:34:31.410Z,19.2
2018-12-09T03:35:31.447Z,19.19
2018-12-09T03:36:31.404Z,19.2
2018-12-09T03:37:31.773Z,19.19
2018-12-09T03:38:31.757Z,19.18
2018-12-09T03:39:31.442Z,19.19
2018-12-09T03:40:31.239Z,19.19
2018-12-09T03:41:31.423Z,19.18
2018-12-09T03:42:31.548Z,19.18
2018-12-09T03:43:31.410Z,19.18
2018-12-09T03:44:31.997Z,19.18
2018-12-09T03:45:31.855Z,19.18
2018-12-09T03:46:31.486Z,19.18
2018-12-09T03:47:31.695Z,19.18
2018-12-09T03:48:31.673Z,19.18
2018-12-09T03:49:31.727Z,19.19
2018-12-09T03:50:31.326Z,19.17
2018-12-09T03:51:31.692Z,19.17
2018-12-09T03:52:31.525Z,19.17
2018-12-09T03:53:31.662Z,19.16
2018-12-09T03:54:31.830Z,19.16
2018-12-09T03:55:31.400Z,19.16
2018-12-09T03:56:31.829Z,19.16
2018-12-09T03:57:31.448Z,19.16
2018-12-09T03:58:31.385Z,19.16
2018-12-09T03:59:31.334Z,19.16
2018-12-09T04:00:31.482Z,19.16
2018-12-09T04:01:31.896Z,19.15
2018-12-09T04:02:31.337Z,19.16
2018-12-09T04:03:31.425Z,19.15
2018-12-09T04:04:31.374Z,19.16
2018-12-09T04:05:31.615Z,19.14
2018-12-09T04:06:31.344Z,19.13
2018-12-09T04:07:31.497Z,19.14
2018-12-09T04:08:31.219Z,19.13
2018-12-09T04:09:31.425Z,19.14
2018-12-09T04:10:31.492Z,19.13
2018-12-09T04:11:31.326Z,19.13
2018-12-09T04:12:31.976Z,19.14
2018-12-09T04:13:31.537Z,19.12
2018-12-09T04:14:31.423Z,19.12
2018-12-09T04:15:31.547Z,19.11
2018-12-09T04:16:31.834Z,19.11
2018-12-09T04:17:31.508Z,19.12
2018-12-09T04:18:31.399Z,19.11
2018-12-09T04:19:31.527Z,19.12
2018-12-09T04:20:31.300Z,19.12
2018-12-09T04:21:31.445Z,19.13
2018-12-09T04:22:32.050Z,19.12
2018-12-09T04:23:31.967Z,19.12
2018-12-09T04:24:31.847Z,19.11
2018-12-09T04:25:31.452Z,19.11
2018-12-09T04:26:32.178Z,19.1
2018-12-09T04:27:31.601Z,19.1
2018-12-09T04:28:31.691Z,19.1
2018-12-09T04:29:32.064Z,19.11
2018-12-09T04:30:31.434Z,19.11
2018-12-09T04:31:31.443Z,19.11
2018-12-09T04:32:31.709Z,19.1
2018-12-09T04:33:31.406Z,19.09
2018-12-09T04:34:31.530Z,19.09
2018-12-09T04:35:31.372Z,19.08
2018-12-09T04:36:31.805Z,19.09
2018-12-09T04:37:31.445Z,19.1
2018-12-09T04:38:31.945Z,19.11
2018-12-09T04:39:31.409Z,19.11
2018-12-09T04:40:31.610Z,19.11
2018-12-09T04:41:31.352Z,19.11
2018-12-09T04:42:31.846Z,19.12
2018-12-09T04:43:31.233Z,19.12
2018-12-09T04:44:31.362Z,19.12
2018-12-09T04:45:31.415Z,19.12
2018-12-09T04:46:31.776Z,19.11
2018-12-09T04:47:31.920Z,19.12
2018-12-09T04:48:31.369Z,19.12
2018-12-09T04:49:31.365Z,19.14
2018-12-09T04:50:31.629Z,19.14
2018-12-09T04:51:31.294Z,19.14
2018-12-09T04:52:31.956Z,19.15
2018-12-09T04:53:31.231Z,19.16
2018-12-09T04:54:31.332Z,19.18
2018-12-09T04:55:31.560Z,19.18
2018-12-09T04:56:31.424Z,19.19
2018-12-09T04:57:31.502Z,19.2
2018-12-09T04:58:31.638Z,19.21
2018-12-09T04:59:31.336Z,19.23
2018-12-09T05:00:31.198Z,19.23
2018-12-09T05:01:31.186Z,19.25
2018-12-09T05:02:31.248Z,19.26
2018-12-09T05:03:31.447Z,19.27
2018-12-09T05:04:31.692Z,19.28
2018-12-09T05:05:31.431Z,19.29
2018-12-09T05:06:31.502Z,19.31
2018-12-09T05:07:31.698Z,19.32
2018-12-09T05:08:31.650Z,19.33
2018-12-09T05:09:31.730Z,19.36
2018-12-09T05:10:31.385Z,19.37
2018-12-09T05:11:31.884Z,19.38
2018-12-09T05:12:31.665Z,19.4
2018-12-09T05:13:31.878Z,19.4
2018-12-09T05:14:31.680Z,19.43
2018-12-09T05:15:31.781Z,19.44
2018-12-09T05:16:31.580Z,19.45
2018-12-09T05:17:31.430Z,19.47
2018-12-09T05:18:31.806Z,19.48
2018-12-09T05:19:31.374Z,19.49
2018-12-09T05:20:31.376Z,19.51
2018-12-09T05:21:31.319Z,19.52
2018-12-09T05:22:31.401Z,19.54
2018-12-09T05:23:31.795Z,19.54
2018-12-09T05:24:31.615Z,19.55
2018-12-09T05:25:31.589Z,19.57
2018-12-09T05:26:31.688Z,19.58
2018-12-09T05:27:31.369Z,19.6
2018-12-09T05:28:31.173Z,19.61
2018-12-09T05:29:31.434Z,19.62
2018-12-09T05:30:31.794Z,19.63
2018-12-09T05:31:31.466Z,19.64
2018-12-09T05:32:31.664Z,19.65
2018-12-09T05:33:31.319Z,19.66
2018-12-09T05:34:31.474Z,19.68
2018-12-09T05:35:31.267Z,19.68
2018-12-09T05:36:31.526Z,19.69
2018-12-09T05:37:32.115Z,19.71
2018-12-09T05:38:31.554Z,19.71
2018-12-09T05:39:31.245Z,19.73
2018-12-09T05:40:31.447Z,19.73
2018-12-09T05:41:31.387Z,19.75
2018-12-09T05:42:31.319Z,19.77
2018-12-09T05:43:32.102Z,19.78
2018-12-09T05:44:31.601Z,19.79
2018-12-09T05:45:31.366Z,19.79
2018-12-09T05:46:31.342Z,19.81
2018-12-09T05:47:31.420Z,19.82
2018-12-09T05:48:31.320Z,19.83
2018-12-09T05:49:31.229Z,19.84
2018-12-09T05:50:31.500Z,19.85
2018-12-09T05:51:31.357Z,19.87
2018-12-09T05:52:31.791Z,19.88
2018-12-09T05:53:31.239Z,19.88
2018-12-09T05:54:31.592Z,19.89
2018-12-09T05:55:31.350Z,19.91
2018-12-09T05:56:31.224Z,19.91
2018-12-09T05:57:31.808Z,19.93
2018-12-09T05:58:31.282Z,19.94
2018-12-09T05:59:31.821Z,19.94
2018-12-09T06:00:31.418Z,19.95
2018-12-09T06:01:31.411Z,19.96
2018-12-09T06:02:31.785Z,19.97
2018-12-09T06:03:31.260Z,19.98
2018-12-09T06:04:31.653Z,19.99
2018-12-09T06:05:31.534Z,19.97
2018-12-09T06:06:31.700Z,19.98
2018-12-09T06:07:31.589Z,19.99
2018-12-09T06:08:31.453Z,20
2018-12-09T06:09:31.412Z,20
2018-12-09T06:10:31.329Z,20.01
2018-12-09T06:11:31.854Z,20.01
2018-12-09T06:12:31.254Z,20.01
2018-12-09T06:13:31.191Z,20.02
2018-12-09T06:14:31.624Z,20.02
2018-12-09T06:15:31.419Z,20.02
2018-12-09T06:16:31.249Z,20.03
2018-12-09T06:17:31.756Z,20.03
2018-12-09T06:18:31.434Z,20.04
2018-12-09T06:19:31.235Z,20.04
2018-12-09T06:20:31.790Z,20.04
2018-12-09T06:21:31.162Z,20.04
2018-12-09T06:22:31.481Z,20.04
2018-12-09T06:23:31.534Z,20.05
2018-12-09T06:24:31.374Z,20.05
2018-12-09T06:25:31.730Z,20.06
2018-12-09T06:26:31.699Z,20.07
2018-12-09T06:27:31.686Z,20.07
2018-12-09T06:28:31.171Z,20.07
2018-12-09T06:29:32.026Z,20.07
2018-12-09T06:30:31.318Z,20.06
2018-12-09T06:31:31.518Z,20.07
2018-12-09T06:32:31.441Z,20.08
2018-12-09T06:33:31.473Z,20.08
2018-12-09T06:34:31.776Z,20.09
2018-12-09T06:35:31.256Z,20.09
2018-12-09T06:36:31.678Z,20.08
2018-12-09T06:37:31.693Z,20.09
2018-12-09T06:38:31.679Z,20.09
2018-12-09T06:39:31.723Z,20.08
2018-12-09T06:40:31.797Z,20.1
2018-12-09T06:41:31.375Z,20.1
2018-12-09T06:42:31.841Z,20.11
2018-12-09T06:43:31.454Z,20.1
2018-12-09T06:44:31.641Z,20.1
2018-12-09T06:45:31.607Z,20.11
2018-12-09T06:46:31.451Z,20.12
2018-12-09T06:47:31.663Z,20.11
2018-12-09T06:48:31.741Z,20.12
2018-12-09T06:49:31.390Z,20.13
2018-12-09T06:50:31.782Z,20.13
2018-12-09T06:51:31.961Z,20.12
2018-12-09T06:52:31.328Z,20.15
2018-12-09T06:53:31.799Z,20.15
2018-12-09T06:54:31.346Z,20.16
2018-12-09T06:55:31.571Z,20.16
2018-12-09T06:56:31.203Z,20.17
2018-12-09T06:57:31.827Z,20.17
2018-12-09T06:58:31.553Z,20.18
2018-12-09T06:59:31.749Z,20.18
2018-12-09T07:00:31.552Z,20.19
2018-12-09T07:01:31.343Z,20.21
2018-12-09T07:02:31.674Z,20.21
2018-12-09T07:03:31.547Z,20.22
2018-12-09T07:04:31.482Z,20.22
2018-12-09T07:05:31.376Z,20.23
2018-12-09T07:06:31.568Z,20.24
2018-12-09T07:07:31.345Z,20.25
2018-12-09T07:08:31.533Z,20.25
2018-12-09T07:09:31.354Z,20.25
2018-12-09T07:10:32.581Z,20.26
2018-12-09T07:11:31.437Z,20.26
2018-12-09T07:12:31.136Z,20.27
2018-12-09T07:13:31.543Z,20.27
2018-12-09T07:14:31.770Z,20.28
2018-12-09T07:15:31.339Z,20.28
2018-12-09T07:16:31.186Z,20.29
2018-12-09T07:17:31.325Z,20.28
2018-12-09T07:18:31.842Z,20.3
2018-12-09T07:19:31.335Z,20.3
2018-12-09T07:20:31.448Z,20.3
2018-12-09T07:21:31.151Z,20.31
2018-12-09T07:22:31.397Z,20.31
2018-12-09T07:23:31.405Z,20.32
2018-12-09T07:24:31.246Z,20.32
2018-12-09T07:25:31.207Z,20.32
2018-12-09T07:26:31.722Z,20.33
2018-12-09T07:27:31.329Z,20.34
2018-12-09T07:28:31.203Z,20.33
2018-12-09T07:29:31.396Z,20.34
2018-12-09T07:30:31.146Z,20.33
2018-12-09T07:31:31.522Z,20.34
2018-12-09T07:32:31.976Z,20.35
2018-12-09T07:33:31.289Z,20.35
2018-12-09T07:34:31.289Z,20.35
2018-12-09T07:35:31.174Z,20.35
2018-12-09T07:36:31.323Z,20.35
2018-12-09T07:37:31.465Z,20.36
2018-12-09T07:38:31.489Z,20.36
2018-12-09T07:39:31.797Z,20.36
2018-12-09T07:40:31.731Z,20.36
2018-12-09T07:41:31.582Z,20.37
2018-12-09T07:42:31.075Z,20.37
2018-12-09T07:43:31.146Z,20.38
2018-12-09T07:44:31.778Z,20.38
2018-12-09T07:45:31.248Z,20.38
2018-12-09T07:46:31.432Z,20.39
2018-12-09T07:47:31.372Z,20.39
2018-12-09T07:48:31.589Z,20.39
2018-12-09T07:49:31.190Z,20.39
2018-12-09T07:50:31.389Z,20.4
2018-12-09T07:51:31.380Z,20.4
2018-12-09T07:52:31.097Z,20.41
2018-12-09T07:53:31.713Z,20.41
2018-12-09T07:54:31.310Z,20.41
2018-12-09T07:55:31.337Z,20.41
2018-12-09T07:56:31.541Z,20.42
2018-12-09T07:57:31.664Z,20.42
2018-12-09T07:58:31.278Z,20.43
2018-12-09T07:59:31.273Z,20.43
2018-12-09T08:00:31.672Z,20.43
2018-12-09T08:01:31.669Z,20.43
2018-12-09T08:02:31.521Z,20.43
2018-12-09T08:03:31.221Z,20.44
2018-12-09T08:04:31.378Z,20.44
2018-12-09T08:05:31.624Z,20.45
2018-12-09T08:06:31.193Z,20.45
2018-12-09T08:07:31.194Z,20.45
2018-12-09T08:08:31.362Z,20.46
2018-12-09T08:09:31.912Z,20.47
2018-12-09T08:10:31.271Z,20.46
2018-12-09T08:11:31.677Z,20.47
2018-12-09T08:12:31.256Z,20.47
2018-12-09T08:13:31.311Z,20.48
2018-12-09T08:14:31.191Z,20.49
2018-12-09T08:15:32.240Z,20.49
2018-12-09T08:16:31.245Z,20.49
2018-12-09T08:17:31.390Z,20.49
2018-12-09T08:18:31.764Z,20.5
2018-12-09T08:19:31.598Z,20.5
2018-12-09T08:20:31.367Z,20.5
2018-12-09T08:21:31.212Z,20.5
2018-12-09T08:22:31.900Z,20.5
2018-12-09T08:23:31.245Z,20.51
2018-12-09T08:24:31.424Z,20.5
2018-12-09T08:25:31.142Z,20.5
2018-12-09T08:26:31.744Z,20.51
2018-12-09T08:27:31.484Z,20.5
2018-12-09T08:28:31.223Z,20.51
2018-12-09T08:29:31.451Z,20.51
2018-12-09T08:30:31.441Z,20.51
2018-12-09T08:31:31.473Z,20.5
2018-12-09T08:32:31.463Z,20.54
2018-12-09T08:33:31.691Z,20.52
2018-12-09T08:34:31.632Z,20.53
2018-12-09T08:35:31.668Z,20.53
2018-12-09T08:36:31.609Z,20.54
2018-12-09T08:37:32.076Z,20.53
2018-12-09T08:38:31.640Z,20.54
2018-12-09T08:39:31.406Z,20.54
2018-12-09T08:40:31.594Z,20.53
2018-12-09T08:41:31.685Z,20.53
2018-12-09T08:42:31.223Z,20.54
2018-12-09T08:43:31.388Z,20.53
2018-12-09T08:44:31.344Z,20.56
2018-12-09T08:45:31.377Z,20.59
2018-12-09T08:46:31.611Z,20.59
2018-12-09T08:47:31.329Z,20.58
2018-12-09T08:48:31.607Z,20.59
2018-12-09T08:49:31.258Z,20.59
2018-12-09T08:50:31.449Z,20.6
2018-12-09T08:51:31.493Z,20.61
2018-12-09T08:52:31.913Z,20.62
2018-12-09T08:53:31.546Z,20.63
2018-12-09T08:54:31.413Z,20.64
2018-12-09T08:55:31.145Z,20.65
2018-12-09T08:56:31.342Z,20.66
2018-12-09T08:57:31.373Z,20.66
2018-12-09T08:58:31.249Z,20.67
2018-12-09T08:59:31.291Z,20.67
2018-12-09T09:00:31.146Z,20.68
2018-12-09T09:01:31.386Z,20.74
2018-12-09T09:02:31.259Z,20.74
2018-12-09T09:03:31.240Z,20.76
2018-12-09T09:04:32.305Z,20.78
2018-12-09T09:05:31.233Z,20.79
2018-12-09T09:06:31.316Z,20.83
2018-12-09T09:07:31.188Z,20.87
2018-12-09T09:08:31.364Z,20.87
2018-12-09T09:09:31.197Z,20.85
2018-12-09T09:10:31.260Z,20.86
2018-12-09T09:11:31.637Z,20.88
2018-12-09T09:12:31.205Z,20.87
2018-12-09T09:13:31.286Z,20.86
2018-12-09T09:14:31.177Z,20.87
2018-12-09T09:15:31.794Z,20.88
2018-12-09T09:16:31.357Z,20.91
2018-12-09T09:17:31.242Z,20.93
2018-12-09T09:18:31.381Z,20.93
2018-12-09T09:19:31.242Z,20.93
2018-12-09T09:20:31.447Z,20.93
2018-12-09T09:21:31.202Z,20.92
2018-12-09T09:22:31.184Z,20.93
2018-12-09T09:23:31.299Z,20.94
2018-12-09T09:24:31.835Z,20.93
2018-12-09T09:25:31.445Z,20.98
2018-12-09T09:26:31.340Z,20.94
2018-12-09T09:27:31.881Z,20.96
2018-12-09T09:28:31.206Z,20.94
2018-12-09T09:29:32.203Z,20.94
2018-12-09T09:30:31.724Z,20.93
2018-12-09T09:31:31.227Z,20.93
2018-12-09T09:32:31.576Z,20.94
2018-12-09T09:33:31.282Z,20.95
2018-12-09T09:34:31.318Z,20.94
2018-12-09T09:35:31.426Z,20.94
2018-12-09T09:36:31.273Z,20.94
2018-12-09T09:37:31.643Z,20.95
2018-12-09T09:38:31.240Z,20.96
2018-12-09T09:39:31.429Z,20.96
2018-12-09T09:40:31.632Z,20.96
2018-12-09T09:41:31.329Z,20.97
2018-12-09T09:42:31.228Z,20.97
2018-12-09T09:43:31.381Z,20.98
2018-12-09T09:44:31.094Z,20.97
2018-12-09T09:45:31.153Z,20.97
2018-12-09T09:46:31.270Z,20.99
2018-12-09T09:47:31.258Z,20.98
2018-12-09T09:48:31.624Z,20.99
2018-12-09T09:49:31.519Z,21.01
2018-12-09T09:50:31.650Z,21.01
2018-12-09T09:51:31.226Z,21.01
2018-12-09T09:52:31.400Z,21.02
2018-12-09T09:53:31.885Z,21.04
2018-12-09T09:54:31.244Z,21.04
2018-12-09T09:55:31.709Z,21.03
2018-12-09T09:56:31.382Z,21.04
2018-12-09T09:57:31.659Z,21.04
2018-12-09T09:58:31.281Z,21.06
2018-12-09T09:59:31.569Z,21.06
2018-12-09T10:00:31.226Z,21.07
2018-12-09T10:01:31.769Z,21.07
2018-12-09T10:02:31.329Z,21.07
2018-12-09T10:03:31.123Z,21.1
2018-12-09T10:04:31.683Z,21.09
2018-12-09T10:05:31.296Z,21.09
2018-12-09T10:06:31.446Z,21.09
2018-12-09T10:07:31.115Z,21.11
2018-12-09T10:08:31.654Z,21.11
2018-12-09T10:09:31.313Z,21.11
2018-12-09T10:10:31.541Z,21.12
2018-12-09T10:11:31.805Z,21.12
2018-12-09T10:12:31.285Z,21.12
2018-12-09T10:13:31.353Z,21.13
2018-12-09T10:14:31.615Z,21.13
2018-12-09T10:15:31.689Z,21.13
2018-12-09T10:16:31.161Z,21.15
2018-12-09T10:17:31.714Z,21.14
2018-12-09T10:18:31.701Z,21.16
2018-12-09T10:19:31.335Z,21.16
2018-12-09T10:20:31.452Z,21.15
2018-12-09T10:21:31.386Z,21.17
2018-12-09T10:22:31.271Z,21.17
2018-12-09T10:23:31.113Z,21.16
2018-12-09T10:24:31.402Z,21.17
2018-12-09T10:25:31.489Z,21.16
2018-12-09T10:26:36.340Z,21.16
2018-12-09T10:27:31.598Z,21.17
2018-12-09T10:28:31.555Z,21.18
2018-12-09T10:29:31.273Z,21.18
2018-12-09T10:30:31.097Z,21.2
2018-12-09T10:31:31.193Z,21.19
2018-12-09T10:32:31.326Z,21.19
2018-12-09T10:33:31.157Z,21.19
2018-12-09T10:34:38.557Z,21.19
2018-12-09T10:35:31.360Z,21.19
2018-12-09T10:36:31.220Z,21.18
2018-12-09T10:37:31.678Z,21.18
2018-12-09T10:38:31.136Z,21.19
2018-12-09T10:39:31.106Z,21.18
2018-12-09T10:40:31.127Z,21.18
2018-12-09T10:41:31.221Z,21.18
2018-12-09T10:42:31.297Z,21.17
2018-12-09T10:43:31.284Z,21.18
2018-12-09T10:44:31.551Z,21.18
2018-12-09T10:45:31.157Z,21.17
2018-12-09T10:46:31.278Z,21.17
2018-12-09T10:47:31.127Z,21.18
2018-12-09T10:48:31.104Z,21.19
2018-12-09T10:49:31.343Z,21.19
2018-12-09T10:50:31.184Z,21.18
2018-12-09T10:51:31.338Z,21.18
2018-12-09T10:52:31.412Z,21.17
2018-12-09T10:53:31.741Z,21.19
2018-12-09T10:54:31.253Z,21.19
2018-12-09T10:55:31.297Z,21.2
2018-12-09T10:56:31.768Z,21.24
2018-12-09T10:57:31.140Z,21.29
2018-12-09T10:58:31.291Z,21.28
2018-12-09T10:59:31.145Z,21.28
2018-12-09T11:00:31.285Z,21.27
2018-12-09T11:01:31.588Z,21.27
2018-12-09T11:02:31.556Z,21.26
2018-12-09T11:03:31.444Z,21.26
2018-12-09T11:04:31.219Z,21.25
2018-12-09T11:05:31.588Z,21.27
2018-12-09T11:06:31.152Z,21.27
2018-12-09T11:07:31.302Z,21.26
2018-12-09T11:08:31.221Z,21.26
2018-12-09T11:09:31.562Z,21.26
2018-12-09T11:10:31.539Z,21.27
2018-12-09T11:11:31.266Z,21.26
2018-12-09T11:12:31.793Z,21.26
2018-12-09T11:13:31.635Z,21.26
2018-12-09T11:14:31.384Z,21.26
2018-12-09T11:15:31.801Z,21.26
2018-12-09T11:16:31.740Z,21.28
2018-12-09T11:17:31.146Z,21.26
2018-12-09T11:18:31.222Z,21.26
2018-12-09T11:19:31.726Z,21.27
2018-12-09T11:20:31.457Z,21.27
2018-12-09T11:21:31.521Z,21.27
2018-12-09T11:22:31.262Z,21.25
2018-12-09T11:23:31.621Z,21.25
2018-12-09T11:24:31.379Z,21.27
2018-12-09T11:25:31.297Z,21.26
2018-12-09T11:26:31.223Z,21.26
2018-12-09T11:27:31.165Z,21.24
2018-12-09T11:28:31.391Z,21.24
2018-12-09T11:29:31.183Z,21.24
2018-12-09T11:30:31.616Z,21.24
2018-12-09T11:31:31.248Z,21.24
2018-12-09T11:32:32.072Z,21.23
2018-12-09T11:33:31.361Z,21.22
2018-12-09T11:34:31.688Z,21.22
2018-12-09T11:35:31.077Z,21.21
2018-12-09T11:36:31.302Z,21.2
2018-12-09T11:37:31.799Z,21.22
2018-12-09T11:38:31.498Z,21.21
2018-12-09T11:39:31.314Z,21.18
2018-12-09T11:40:31.226Z,21.2
2018-12-09T11:41:31.702Z,21.2
2018-12-09T11:42:31.161Z,21.2
2018-12-09T11:43:31.503Z,21.2
2018-12-09T11:44:31.350Z,21.2
2018-12-09T11:45:31.143Z,21.21
2018-12-09T11:46:31.424Z,21.21
2018-12-09T11:47:31.414Z,21.21
2018-12-09T11:48:31.677Z,21.21
2018-12-09T11:49:31.458Z,21.22
2018-12-09T11:50:31.707Z,21.22
2018-12-09T11:51:31.422Z,21.23
2018-12-09T11:52:31.362Z,21.24
2018-12-09T11:53:31.207Z,21.23
2018-12-09T11:54:31.687Z,21.23
2018-12-09T11:55:31.531Z,21.23
2018-12-09T11:56:31.178Z,21.23
2018-12-09T11:57:31.397Z,21.23
2018-12-09T11:58:31.260Z,21.23
2018-12-09T11:59:31.665Z,21.23
2018-12-09T12:00:31.080Z,21.24
2018-12-09T12:01:31.255Z,21.24
2018-12-09T12:02:31.275Z,21.23
2018-12-09T12:03:31.165Z,21.23
2018-12-09T12:04:31.537Z,21.25
2018-12-09T12:05:31.406Z,21.24
2018-12-09T12:06:31.521Z,21.24
2018-12-09T12:07:31.203Z,21.25
2018-12-09T12:08:31.627Z,21.24
2018-12-09T12:09:32.114Z,21.24
2018-12-09T12:10:31.242Z,21.24
2018-12-09T12:11:31.057Z,21.24
2018-12-09T12:12:31.412Z,21.24
2018-12-09T12:13:31.168Z,21.24
2018-12-09T12:14:31.526Z,21.24
2018-12-09T12:15:31.393Z,21.25
2018-12-09T12:16:31.211Z,21.24
2018-12-09T12:17:31.220Z,21.24
2018-12-09T12:18:31.072Z,21.24
2018-12-09T12:19:31.261Z,21.23
2018-12-09T12:20:31.073Z,21.24
2018-12-09T12:21:31.151Z,21.26
2018-12-09T12:22:31.730Z,21.26
2018-12-09T12:23:31.186Z,21.28
2018-12-09T12:24:31.220Z,21.28
2018-12-09T12:25:31.080Z,21.27
2018-12-09T12:26:31.440Z,21.27
2018-12-09T12:27:31.285Z,21.27
2018-12-09T12:28:31.261Z,21.27
2018-12-09T12:29:31.274Z,21.28
2018-12-09T12:30:31.416Z,21.27
2018-12-09T12:31:31.475Z,21.28
2018-12-09T12:32:31.076Z,21.27
2018-12-09T12:33:31.230Z,21.28
2018-12-09T12:34:31.413Z,21.27
2018-12-09T12:35:31.293Z,21.26
2018-12-09T12:36:31.810Z,21.25
2018-12-09T12:37:31.112Z,21.25
2018-12-09T12:38:31.259Z,21.24
2018-12-09T12:39:31.120Z,21.24
2018-12-09T12:40:31.447Z,21.24
2018-12-09T12:41:31.931Z,21.23
2018-12-09T12:42:31.331Z,21.21
2018-12-09T12:43:31.699Z,21.22
2018-12-09T12:44:31.116Z,21.23
2018-12-09T12:45:31.333Z,21.22
2018-12-09T12:46:31.107Z,21.21
2018-12-09T12:47:31.227Z,21.21
2018-12-09T12:48:31.650Z,21.2
2018-12-09T12:49:31.172Z,21.19
2018-12-09T12:50:31.380Z,21.2
2018-12-09T12:51:32.034Z,21.19
2018-12-09T12:52:31.356Z,21.18
2018-12-09T12:53:31.633Z,21.18
2018-12-09T12:54:31.302Z,21.17